createdAt,value
2023-02-05T00:01:57.081Z,79817.50
2023-02-05T00:04:24.507Z,79825.63
2023-02-05T00:06:51.374Z,79811.41
2023-02-05T00:09:18.600Z,79813.44
2023-02-05T00:11:45.515Z,79805.31
2023-02-05T00:14:12.835Z,79807.34
2023-02-05T00:16:39.741Z,79809.38
2023-02-05T00:19:07.661Z,79805.31
2023-02-05T00:21:34.603Z,79805.31
2023-02-05T00:24:01.805Z,79805.31
2023-02-05T00:26:28.848Z,79795.19
2023-02-05T00:28:56.549Z,79785.03
2023-02-05T00:31:24.265Z,79793.16
2023-02-05T00:33:52.232Z,79797.22
2023-02-05T00:36:21.287Z,79801.25
2023-02-05T00:38:48.675Z,79795.19
2023-02-05T00:41:16.650Z,79797.22
2023-02-05T00:43:44.406Z,79791.13
2023-02-05T00:46:13.480Z,79789.09
2023-02-05T00:48:41.800Z,79780.97
2023-02-05T00:51:09.403Z,79780.97
2023-02-05T00:53:37.064Z,79780.97
2023-02-05T00:56:04.542Z,79785.03
2023-02-05T00:58:31.994Z,79774.88
2023-02-05T01:00:59.155Z,79785.03
2023-02-05T01:03:26.459Z,79780.97
2023-02-05T01:05:53.375Z,79785.03
2023-02-05T01:08:20.581Z,79776.91
2023-02-05T01:10:49.450Z,79776.91
2023-02-05T01:13:18.343Z,79776.91
2023-02-05T01:15:46.338Z,79764.75
2023-02-05T01:18:14.279Z,79766.78
2023-02-05T01:20:42.578Z,79762.72
2023-02-05T01:23:11.592Z,79764.75
2023-02-05T01:25:38.681Z,79752.56
2023-02-05T01:28:06.930Z,79752.56
2023-02-05T01:30:34.997Z,79748.50
2023-02-05T01:33:03.551Z,79752.56
2023-02-05T01:35:31.339Z,79756.63
2023-02-05T01:37:58.784Z,79760.69
2023-02-05T01:40:25.686Z,79756.63
2023-02-05T01:42:52.904Z,79760.69
2023-02-05T01:45:22.638Z,79752.56
2023-02-05T01:47:59.041Z,79756.63
2023-02-05T01:50:36.541Z,79760.69
2023-02-05T01:53:08.639Z,79752.56
2023-02-05T01:55:40.233Z,79760.69
2023-02-05T01:58:08.478Z,79764.75
2023-02-05T02:00:35.496Z,79760.69
2023-02-05T02:03:03.932Z,79752.56
2023-02-05T02:05:30.942Z,79760.69
2023-02-05T02:07:58.421Z,79762.72
2023-02-05T02:10:26.312Z,79768.81
2023-02-05T02:12:54.884Z,79768.81
2023-02-05T02:15:26.073Z,79760.69
2023-02-05T02:18:17.912Z,79776.91
2023-02-05T02:20:46.501Z,79783.00
2023-02-05T02:23:27.783Z,79785.03
2023-02-05T02:25:57.765Z,79785.03
2023-02-05T02:28:31.007Z,79789.09
2023-02-05T02:31:10.818Z,79793.16
2023-02-05T02:33:50.529Z,79780.97
2023-02-05T02:36:26.943Z,79789.09
2023-02-05T02:39:14.017Z,79787.06
2023-02-05T02:41:53.902Z,79791.13
2023-02-05T02:44:31.153Z,79805.31
2023-02-05T02:47:05.665Z,79803.28
2023-02-05T02:49:41.272Z,79809.38
2023-02-05T02:52:11.044Z,79801.25
2023-02-05T02:54:41.412Z,79807.34
2023-02-05T02:57:11.296Z,79821.56
2023-02-05T02:59:43.100Z,79815.47
2023-02-05T03:02:12.946Z,79817.50
2023-02-05T03:04:44.198Z,79821.56
2023-02-05T03:07:31.585Z,79817.50
2023-02-05T03:10:08.262Z,79821.56
2023-02-05T03:12:35.461Z,79817.50
2023-02-05T03:15:03.252Z,79825.63
2023-02-05T03:17:30.713Z,79809.38
2023-02-05T03:20:15.390Z,79805.31
2023-02-05T03:22:42.639Z,79801.25
2023-02-05T03:25:10.677Z,79809.38
2023-02-05T03:27:39.144Z,79797.22
2023-02-05T03:30:07.978Z,79797.22
2023-02-05T03:32:41.355Z,79797.22
2023-02-05T03:35:26.887Z,79801.25
2023-02-05T03:38:10.727Z,79793.16
2023-02-05T03:40:46.200Z,79789.09
2023-02-05T03:43:44.334Z,79797.22
2023-02-05T03:46:25.189Z,79793.16
2023-02-05T03:49:04.460Z,79793.16
2023-02-05T03:51:59.473Z,79791.13
2023-02-05T03:54:36.846Z,79791.13
2023-02-05T03:57:11.646Z,79776.91
2023-02-05T03:59:41.247Z,79778.94
2023-02-05T04:02:10.571Z,79764.75
2023-02-05T04:04:41.132Z,79768.81
2023-02-05T04:07:09.251Z,79768.81
2023-02-05T04:09:37.102Z,79766.78
2023-02-05T04:12:05.265Z,79776.91
2023-02-05T04:14:33.437Z,79768.81
2023-02-05T04:17:01.104Z,79772.84
2023-02-05T04:19:28.133Z,79764.75
2023-02-05T04:21:58.446Z,79756.63
2023-02-05T04:24:25.495Z,79758.66
2023-02-05T04:26:53.402Z,79756.63
2023-02-05T04:29:20.837Z,79778.94
2023-02-05T04:31:50.920Z,79780.97
2023-02-05T04:34:17.877Z,79772.84
2023-02-05T04:36:46.080Z,79776.91
2023-02-05T04:39:13.166Z,79789.09
2023-02-05T04:41:41.306Z,79791.13
2023-02-05T04:44:08.347Z,79797.22
2023-02-05T04:46:35.606Z,79776.91
2023-02-05T04:49:02.642Z,79789.09
2023-02-05T04:51:47.850Z,79797.22
2023-02-05T04:54:14.989Z,79801.25
2023-02-05T04:56:41.930Z,79797.22
2023-02-05T04:59:09.218Z,79793.16
2023-02-05T05:01:36.492Z,79797.22
2023-02-05T05:04:03.683Z,79801.25
2023-02-05T05:06:30.998Z,79811.41
2023-02-05T05:08:58.175Z,79809.38
2023-02-05T05:11:25.838Z,79813.44
2023-02-05T05:13:53.355Z,79813.44
2023-02-05T05:16:20.542Z,79825.63
2023-02-05T05:18:47.805Z,79829.66
2023-02-05T05:21:14.778Z,79829.66
2023-02-05T05:23:41.944Z,79825.63
2023-02-05T05:26:11.401Z,79817.50
2023-02-05T05:28:38.795Z,79817.50
2023-02-05T05:31:17.315Z,79805.31
2023-02-05T05:33:44.625Z,79813.44
2023-02-05T05:36:11.618Z,79821.56
2023-02-05T05:38:39.005Z,79815.47
2023-02-05T05:41:25.242Z,79821.56
2023-02-05T05:43:54.413Z,79817.50
2023-02-05T05:46:24.229Z,79825.63
2023-02-05T05:48:53.528Z,79833.72
2023-02-05T05:51:21.918Z,79833.72
2023-02-05T05:53:49.237Z,79833.72
2023-02-05T05:56:17.042Z,79845.91
2023-02-05T05:58:45.225Z,79843.88
2023-02-05T06:01:14.065Z,79845.91
2023-02-05T06:03:41.303Z,79854.03
2023-02-05T06:06:10.461Z,79849.97
2023-02-05T06:08:37.834Z,79854.03
2023-02-05T06:11:04.840Z,79843.88
2023-02-05T06:13:32.100Z,79837.78
2023-02-05T06:15:59.062Z,79845.91
2023-02-05T06:18:26.286Z,79854.03
2023-02-05T06:20:53.207Z,79833.72
2023-02-05T06:23:20.649Z,79841.84
2023-02-05T06:25:47.752Z,79833.72
2023-02-05T06:28:15.015Z,79841.84
2023-02-05T06:30:41.942Z,79845.91
2023-02-05T06:33:09.229Z,79845.91
2023-02-05T06:35:36.666Z,79841.84
2023-02-05T06:38:03.951Z,79845.91
2023-02-05T06:40:30.858Z,79833.72
2023-02-05T06:42:58.122Z,79829.66
2023-02-05T06:45:24.986Z,79833.72
2023-02-05T06:47:56.242Z,79841.84
2023-02-05T06:50:24.144Z,79833.72
2023-02-05T06:52:51.658Z,79833.72
2023-02-05T06:55:18.868Z,79829.66
2023-02-05T06:57:46.107Z,79833.72
2023-02-05T07:00:13.994Z,79833.72
2023-02-05T07:02:41.378Z,79823.59
2023-02-05T07:05:09.085Z,79809.38
2023-02-05T07:07:36.322Z,79805.31
2023-02-05T07:10:03.578Z,79805.31
2023-02-05T07:12:31.131Z,79813.44
2023-02-05T07:14:57.997Z,79805.31
2023-02-05T07:17:25.469Z,79801.25
2023-02-05T07:19:52.444Z,79805.31
2023-02-05T07:22:19.201Z,79819.53
2023-02-05T07:24:46.417Z,79809.38
2023-02-05T07:27:13.341Z,79805.31
2023-02-05T07:29:40.537Z,79795.19
2023-02-05T07:32:07.710Z,79793.16
2023-02-05T07:34:35.224Z,79776.91
2023-02-05T07:37:02.185Z,79780.97
2023-02-05T07:39:29.416Z,79774.88
2023-02-05T07:41:56.562Z,79768.81
2023-02-05T07:44:34.822Z,79762.72
2023-02-05T07:47:01.673Z,79764.75
2023-02-05T07:49:29.258Z,79756.63
2023-02-05T07:51:56.414Z,79764.75
2023-02-05T07:54:24.642Z,79756.63
2023-02-05T07:56:51.661Z,79752.56
2023-02-05T07:59:18.794Z,79742.44
2023-02-05T08:01:45.637Z,79732.28
2023-02-05T08:04:12.879Z,79724.16
2023-02-05T08:06:40.645Z,79720.09
2023-02-05T08:09:07.810Z,79720.09
2023-02-05T08:11:34.758Z,79728.22
2023-02-05T08:14:02.447Z,79720.09
2023-02-05T08:16:29.517Z,79724.16
2023-02-05T08:18:56.736Z,79728.22
2023-02-05T08:21:23.739Z,79736.34
2023-02-05T08:23:51.252Z,79748.50
2023-02-05T08:26:18.913Z,79748.50
2023-02-05T08:28:46.284Z,79752.56
2023-02-05T08:31:18.473Z,79740.41
2023-02-05T08:33:47.818Z,79728.22
2023-02-05T08:36:14.776Z,79699.81
2023-02-05T08:38:42.279Z,79663.28
2023-02-05T08:41:13.678Z,79630.84
2023-02-05T08:43:47.322Z,79622.72
2023-02-05T08:46:18.685Z,79610.53
2023-02-05T08:48:47.635Z,79614.59
2023-02-05T08:51:15.394Z,79634.88
2023-02-05T08:53:42.582Z,79653.16
2023-02-05T08:56:10.899Z,79663.28
2023-02-05T08:58:39.338Z,79671.41
2023-02-05T09:01:12.861Z,79675.47
2023-02-05T09:03:40.529Z,79687.66
2023-02-05T09:06:10.001Z,79687.66
2023-02-05T09:08:37.676Z,79683.59
2023-02-05T09:11:05.305Z,79695.75
2023-02-05T09:13:33.674Z,79716.03
2023-02-05T09:16:00.576Z,79716.03
2023-02-05T09:18:27.867Z,79701.84
2023-02-05T09:20:54.878Z,79699.81
2023-02-05T09:23:22.909Z,79689.66
2023-02-05T09:25:49.890Z,79679.53
2023-02-05T09:28:17.379Z,79667.34
2023-02-05T09:30:46.204Z,79681.56
2023-02-05T09:33:13.798Z,79683.59
2023-02-05T09:35:41.357Z,79681.56
2023-02-05T09:38:10.024Z,79681.56
2023-02-05T09:41:05.468Z,79683.59
2023-02-05T09:43:50.760Z,79716.03
2023-02-05T09:46:45.247Z,79728.22
2023-02-05T09:49:34.830Z,79724.16
2023-02-05T09:52:09.154Z,79724.16
2023-02-05T09:54:41.927Z,79728.22
2023-02-05T09:57:16.360Z,79724.16
2023-02-05T09:59:46.946Z,79730.25
2023-02-05T10:02:22.613Z,79744.44
2023-02-05T10:04:52.419Z,79748.50
2023-02-05T10:07:43.397Z,79744.44
2023-02-05T10:10:26.794Z,79748.50
2023-02-05T10:13:34.726Z,79740.41
2023-02-05T10:16:23.291Z,79732.28
2023-02-05T10:19:25.467Z,79724.16
2023-02-05T10:22:26.620Z,79718.06
2023-02-05T10:25:20.890Z,79712.00
2023-02-05T10:27:57.262Z,79712.00
2023-02-05T10:30:44.846Z,79720.09
2023-02-05T10:33:18.906Z,79707.94
2023-02-05T10:36:01.048Z,79699.81
2023-02-05T10:38:33.915Z,79679.53
2023-02-05T10:41:27.063Z,79675.47
2023-02-05T10:44:07.687Z,79663.28
2023-02-05T10:46:59.191Z,79647.06
2023-02-05T10:49:29.796Z,79647.06
2023-02-05T10:51:56.803Z,79636.91
2023-02-05T10:54:30.504Z,79634.88
2023-02-05T10:56:58.788Z,79634.88
2023-02-05T10:59:27.979Z,79643.00
2023-02-05T11:01:56.890Z,79643.00
2023-02-05T11:04:46.179Z,79655.19
2023-02-05T11:07:19.771Z,79638.94
2023-02-05T11:09:47.033Z,79632.88
2023-02-05T11:12:29.193Z,79647.06
2023-02-05T11:14:59.659Z,79651.13
2023-02-05T11:17:37.048Z,79638.94
2023-02-05T11:20:27.405Z,79618.66
2023-02-05T11:23:09.463Z,79606.50
2023-02-05T11:25:36.806Z,79610.53
2023-02-05T11:28:05.640Z,79606.50
2023-02-05T11:30:55.926Z,79610.53
2023-02-05T11:33:22.434Z,79620.69
2023-02-05T11:36:15.613Z,79614.59
2023-02-05T11:39:20.816Z,79604.47
2023-02-05T11:41:48.612Z,79598.38
2023-02-05T11:44:20.338Z,79598.38
2023-02-05T11:46:48.023Z,79602.44
2023-02-05T11:49:24.865Z,79602.44
2023-02-05T11:51:55.678Z,79618.66
2023-02-05T11:54:32.558Z,79618.66
2023-02-05T11:57:01.417Z,79614.59
2023-02-05T11:59:28.795Z,79606.50
2023-02-05T12:02:34.330Z,79602.44
2023-02-05T12:05:09.406Z,79606.50
2023-02-05T12:07:43.190Z,79618.66
2023-02-05T12:10:38.381Z,79628.81
2023-02-05T12:13:45.571Z,79636.91
2023-02-05T12:16:26.940Z,79643.00
2023-02-05T12:19:26.587Z,79643.00
2023-02-05T12:22:10.518Z,79634.88
2023-02-05T12:24:56.500Z,79624.75
2023-02-05T12:27:57.587Z,79630.84
2023-02-05T12:30:30.627Z,79616.63
2023-02-05T12:33:26.233Z,79614.59
2023-02-05T12:36:05.650Z,79610.53
2023-02-05T12:38:38.397Z,79610.53
2023-02-05T12:41:11.687Z,79602.44
2023-02-05T12:43:41.156Z,79598.38
2023-02-05T12:46:18.282Z,79594.31
2023-02-05T12:49:11.850Z,79618.66
2023-02-05T12:52:14.359Z,79632.88
2023-02-05T12:55:11.685Z,79622.72
2023-02-05T12:57:44.767Z,79622.72
2023-02-05T13:00:20.554Z,79626.78
2023-02-05T13:03:08.972Z,79622.72
2023-02-05T13:05:53.055Z,79634.88
2023-02-05T13:08:32.133Z,79618.66
2023-02-05T13:11:09.607Z,79622.72
2023-02-05T13:13:53.729Z,79626.78
2023-02-05T13:16:24.096Z,79620.69
2023-02-05T13:19:01.544Z,79628.81
2023-02-05T13:21:48.013Z,79626.78
2023-02-05T13:24:36.934Z,79630.84
2023-02-05T13:27:33.297Z,79628.81
2023-02-05T13:30:04.843Z,79632.88
2023-02-05T13:32:34.424Z,79630.84
2023-02-05T13:35:02.079Z,79651.13
2023-02-05T13:37:34.798Z,79647.06
2023-02-05T13:40:24.157Z,79651.13
2023-02-05T13:43:06.131Z,79647.06
2023-02-05T13:46:05.791Z,79647.06
2023-02-05T13:49:00.409Z,79651.13
2023-02-05T13:51:32.274Z,79659.25
2023-02-05T13:54:30.736Z,79667.34
2023-02-05T13:57:27.316Z,79663.28
2023-02-05T13:59:55.902Z,79665.31
2023-02-05T14:02:41.993Z,79663.28
2023-02-05T14:05:11.083Z,79669.38
2023-02-05T14:07:50.128Z,79671.41
2023-02-05T14:10:35.183Z,79675.47
2023-02-05T14:13:36.773Z,79671.41
2023-02-05T14:16:25.466Z,79671.41
2023-02-05T14:19:01.761Z,79675.47
2023-02-05T14:21:31.552Z,79675.47
2023-02-05T14:24:03.931Z,79671.41
2023-02-05T14:26:56.346Z,79679.53
2023-02-05T14:29:43.793Z,79675.47
2023-02-05T14:32:26.044Z,79675.47
2023-02-05T14:35:28.925Z,79677.50
2023-02-05T14:38:02.521Z,79675.47
2023-02-05T14:40:37.958Z,79673.44
2023-02-05T14:43:33.421Z,79683.59
2023-02-05T14:46:06.166Z,79687.66
2023-02-05T14:48:41.723Z,79687.66
2023-02-05T14:51:24.827Z,79681.56
2023-02-05T14:54:03.072Z,79691.69
2023-02-05T14:56:48.046Z,79707.94
2023-02-05T14:59:32.063Z,79707.94
2023-02-05T15:02:00.170Z,79720.09
2023-02-05T15:04:52.870Z,79726.19
2023-02-05T15:07:24.965Z,79732.28
2023-02-05T15:10:00.426Z,79740.41
2023-02-05T15:12:33.401Z,79736.34
2023-02-05T15:15:28.147Z,79740.41
2023-02-05T15:18:02.393Z,79748.50
2023-02-05T15:20:32.575Z,79754.59
2023-02-05T15:23:18.263Z,79760.69
2023-02-05T15:26:00.698Z,79772.84
2023-02-05T15:28:35.318Z,79768.81
2023-02-05T15:31:26.053Z,79770.81
2023-02-05T15:34:02.182Z,79778.94
2023-02-05T15:36:37.615Z,79772.84
2023-02-05T15:39:26.997Z,79783.00
2023-02-05T15:42:00.035Z,79783.00
2023-02-05T15:44:33.580Z,79785.03
2023-02-05T15:47:04.341Z,79774.88
2023-02-05T15:49:36.890Z,79776.91
2023-02-05T15:52:05.882Z,79776.91
2023-02-05T15:54:35.934Z,79776.91
2023-02-05T15:57:05.327Z,79776.91
2023-02-05T15:59:33.887Z,79783.00
2023-02-05T16:02:05.867Z,79787.06
2023-02-05T16:04:39.020Z,79776.91
2023-02-05T16:07:24.026Z,79787.06
2023-02-05T16:09:54.570Z,79776.91
2023-02-05T16:12:22.074Z,79776.91
2023-02-05T16:15:04.765Z,79776.91
2023-02-05T16:17:44.725Z,79785.03
2023-02-05T16:20:23.415Z,79789.09
2023-02-05T16:22:55.856Z,79776.91
2023-02-05T16:25:44.222Z,79780.97
2023-02-05T16:28:24.683Z,79791.13
2023-02-05T16:30:56.246Z,79787.06
2023-02-05T16:33:35.927Z,79797.22
2023-02-05T16:36:07.213Z,79797.22
2023-02-05T16:38:35.521Z,79803.28
2023-02-05T16:41:20.580Z,79807.34
2023-02-05T16:43:48.103Z,79813.44
2023-02-05T16:46:15.667Z,79813.44
2023-02-05T16:48:45.573Z,79805.31
2023-02-05T16:51:28.131Z,79813.44
2023-02-05T16:53:55.013Z,79813.44
2023-02-05T16:56:26.135Z,79815.47
2023-02-05T16:58:56.399Z,79817.50
2023-02-05T17:01:29.928Z,79813.44
2023-02-05T17:03:57.380Z,79813.44
2023-02-05T17:06:33.959Z,79805.31
2023-02-05T17:09:01.309Z,79797.22
2023-02-05T17:11:37.327Z,79813.44
2023-02-05T17:14:26.066Z,79807.34
2023-02-05T17:17:15.615Z,79809.38
2023-02-05T17:19:42.849Z,79807.34
2023-02-05T17:22:16.307Z,79805.31
2023-02-05T17:24:49.339Z,79797.22
2023-02-05T17:27:43.491Z,79793.16
2023-02-05T17:30:16.258Z,79793.16
2023-02-05T17:32:44.642Z,79793.16
2023-02-05T17:35:16.007Z,79787.06
2023-02-05T17:37:43.433Z,79776.91
2023-02-05T17:40:13.208Z,79787.06
2023-02-05T17:42:41.067Z,79793.16
2023-02-05T17:45:19.799Z,79801.25
2023-02-05T17:47:47.665Z,79797.22
2023-02-05T17:50:15.510Z,79805.31
2023-02-05T17:52:44.611Z,79803.28
2023-02-05T17:55:17.255Z,79809.38
2023-02-05T17:57:45.407Z,79821.56
2023-02-05T18:00:19.458Z,79841.84
2023-02-05T18:02:47.036Z,79843.88
2023-02-05T18:05:14.312Z,79849.97
2023-02-05T18:07:46.312Z,79862.13
2023-02-05T18:10:23.607Z,79870.25
2023-02-05T18:12:52.001Z,79886.47
2023-02-05T18:15:19.846Z,79898.66
2023-02-05T18:17:47.774Z,79882.44
2023-02-05T18:20:16.253Z,79882.44
2023-02-05T18:22:43.448Z,79894.59
2023-02-05T18:25:10.392Z,79894.59
2023-02-05T18:27:38.256Z,79914.88
2023-02-05T18:30:05.859Z,79925.03
2023-02-05T18:32:33.324Z,79923.00
2023-02-05T18:35:00.547Z,79939.25
2023-02-05T18:37:27.998Z,79943.31
2023-02-05T18:39:54.979Z,79961.56
2023-02-05T18:42:23.222Z,79963.59
2023-02-05T18:44:50.336Z,79975.75
2023-02-05T18:47:17.522Z,79985.91
2023-02-05T18:49:44.629Z,79987.94
2023-02-05T18:52:14.068Z,79979.81
2023-02-05T18:54:41.004Z,79979.81
2023-02-05T18:57:08.290Z,79994.03
2023-02-05T18:59:36.871Z,80000.13
2023-02-05T19:02:04.158Z,80006.19
2023-02-05T19:04:33.152Z,80004.16
2023-02-05T19:07:01.187Z,80008.22
2023-02-05T19:09:28.616Z,80012.28
2023-02-05T19:11:56.321Z,80004.16
2023-02-05T19:14:24.763Z,80024.47
2023-02-05T19:16:53.072Z,80024.47
2023-02-05T19:19:23.417Z,80032.59
2023-02-05T19:21:53.684Z,80040.69
2023-02-05T19:24:21.613Z,80048.81
2023-02-05T19:26:50.004Z,80044.75
2023-02-05T19:29:19.513Z,80048.81
2023-02-05T19:31:47.298Z,80061.00
2023-02-05T19:34:14.711Z,80069.09
2023-02-05T19:36:42.492Z,80069.09
2023-02-05T19:39:12.082Z,80065.03
2023-02-05T19:41:40.071Z,80101.56
2023-02-05T19:44:08.684Z,80077.22
2023-02-05T19:46:47.260Z,80083.31
2023-02-05T19:49:21.841Z,80085.34
2023-02-05T19:51:52.086Z,80089.41
2023-02-05T19:54:21.579Z,80091.44
2023-02-05T19:56:49.488Z,80107.66
2023-02-05T19:59:16.875Z,80105.63
2023-02-05T20:01:45.227Z,80115.78
2023-02-05T20:04:18.592Z,80129.97
2023-02-05T20:06:47.037Z,80140.13
2023-02-05T20:09:16.340Z,80150.28
2023-02-05T20:11:46.839Z,80150.28
2023-02-05T20:14:14.947Z,80156.34
2023-02-05T20:16:45.138Z,80158.38
2023-02-05T20:19:14.447Z,80170.56
2023-02-05T20:21:42.242Z,80166.50
2023-02-05T20:24:09.697Z,80174.63
2023-02-05T20:26:37.771Z,80186.78
2023-02-05T20:29:23.948Z,80186.78
2023-02-05T20:31:52.580Z,80207.09
2023-02-05T20:34:22.625Z,80196.94
2023-02-05T20:36:51.748Z,80194.91
2023-02-05T20:39:20.279Z,80198.97
2023-02-05T20:41:50.008Z,80211.16
2023-02-05T20:44:18.140Z,80215.22
2023-02-05T20:46:45.479Z,80223.31
2023-02-05T20:49:13.532Z,80223.31
2023-02-05T20:51:41.337Z,80227.38
2023-02-05T20:54:08.508Z,80235.50
2023-02-05T20:56:36.034Z,80247.69
2023-02-05T20:59:05.263Z,80259.84
2023-02-05T21:01:34.734Z,80255.78
2023-02-05T21:04:04.014Z,80263.91
2023-02-05T21:06:36.930Z,80270.00
2023-02-05T21:09:05.855Z,80276.09
2023-02-05T21:11:33.313Z,80272.03
2023-02-05T21:14:00.275Z,80280.13
2023-02-05T21:16:28.281Z,80280.13
2023-02-05T21:18:56.291Z,80284.19
2023-02-05T21:21:28.925Z,80288.25
2023-02-05T21:24:01.040Z,80296.38
2023-02-05T21:26:31.669Z,80304.50
2023-02-05T21:29:04.588Z,80314.63
2023-02-05T21:31:36.271Z,80316.66
2023-02-05T21:34:04.945Z,80332.91
2023-02-05T21:36:32.312Z,80336.97
2023-02-05T21:39:00.348Z,80334.94
2023-02-05T21:41:27.890Z,80339.00
2023-02-05T21:43:57.530Z,80336.97
2023-02-05T21:46:27.080Z,80343.06
2023-02-05T21:48:55.887Z,80347.09
2023-02-05T21:51:24.945Z,80349.13
2023-02-05T21:53:57.212Z,80353.19
2023-02-05T21:56:44.764Z,80353.19
2023-02-05T21:59:13.036Z,80363.34
2023-02-05T22:01:42.130Z,80357.25
2023-02-05T22:04:12.573Z,80367.41
2023-02-05T22:06:39.817Z,80373.50
2023-02-05T22:09:09.126Z,80377.56
2023-02-05T22:11:38.539Z,80381.59
2023-02-05T22:14:05.456Z,80373.50
2023-02-05T22:16:34.318Z,80377.56
2023-02-05T22:19:02.363Z,80385.66
2023-02-05T22:21:35.363Z,80389.72
2023-02-05T22:24:03.642Z,80387.69
2023-02-05T22:26:34.388Z,80389.72
2023-02-05T22:29:04.597Z,80393.78
2023-02-05T22:31:33.142Z,80401.91
2023-02-05T22:34:00.052Z,80397.84
2023-02-05T22:36:30.030Z,80403.94
2023-02-05T22:38:57.405Z,80401.91
2023-02-05T22:41:27.158Z,80410.03
2023-02-05T22:43:55.584Z,80412.03
2023-02-05T22:46:25.002Z,80405.97
2023-02-05T22:48:53.566Z,80405.97
2023-02-05T22:51:26.858Z,80401.91
2023-02-05T22:53:54.560Z,80401.91
2023-02-05T22:56:22.367Z,80401.91
2023-02-05T22:58:50.836Z,80412.03
2023-02-05T23:01:24.017Z,80405.97
2023-02-05T23:03:52.282Z,80397.84
2023-02-05T23:06:26.231Z,80397.84
2023-02-05T23:09:14.965Z,80405.97
2023-02-05T23:11:43.218Z,80405.97
2023-02-05T23:14:11.811Z,80397.84
2023-02-05T23:16:41.832Z,80403.94
2023-02-05T23:19:12.549Z,80401.91
2023-02-05T23:21:41.782Z,80403.94
2023-02-05T23:24:09.192Z,80397.84
2023-02-05T23:26:42.718Z,80401.91
2023-02-05T23:29:12.389Z,80405.97
2023-02-05T23:31:40.673Z,80414.06
2023-02-05T23:34:08.446Z,80405.97
2023-02-05T23:36:35.647Z,80414.06
2023-02-05T23:39:02.631Z,80410.03
2023-02-05T23:41:35.851Z,80393.78
2023-02-05T23:44:20.171Z,80405.97
2023-02-05T23:46:49.128Z,80393.78
2023-02-05T23:49:16.193Z,80397.84
2023-02-05T23:51:43.725Z,80405.97
2023-02-05T23:54:12.101Z,80418.13
2023-02-05T23:56:39.993Z,80418.13
2023-02-05T23:59:08.314Z,80410.03
